sensor_id;sensor_type;location;lat;lon;timestamp;pressure;altitude;pressure_sealevel;temperature;humidity
59757;BME280;45631;51.962;5.974;2023-02-18T00:01:28;102046.22;;;9.00;100.00
59757;BME280;45631;51.962;5.974;2023-02-18T00:03:57;102036.75;;;8.95;100.00
59757;BME280;45631;51.962;5.974;2023-02-18T00:06:27;102030.88;;;8.89;100.00
59757;BME280;45631;51.962;5.974;2023-02-18T00:08:56;102022.16;;;8.88;100.00
59757;BME280;45631;51.962;5.974;2023-02-18T00:11:29;102025.47;;;8.93;100.00
59757;BME280;45631;51.962;5.974;2023-02-18T00:14:00;102021.97;;;8.93;100.00
59757;BME280;45631;51.962;5.974;2023-02-18T00:16:29;102019.31;;;8.94;100.00
59757;BME280;45631;51.962;5.974;2023-02-18T00:18:59;102016.56;;;8.98;100.00
59757;BME280;45631;51.962;5.974;2023-02-18T00:21:28;102000.00;;;8.95;100.00
59757;BME280;45631;51.962;5.974;2023-02-18T00:23:57;102000.94;;;8.94;100.00
59757;BME280;45631;51.962;5.974;2023-02-18T00:26:25;102015.81;;;8.94;100.00
59757;BME280;45631;51.962;5.974;2023-02-18T00:28:54;102015.88;;;8.92;100.00
59757;BME280;45631;51.962;5.974;2023-02-18T00:31:26;102011.47;;;8.93;100.00
59757;BME280;45631;51.962;5.974;2023-02-18T00:33:55;102016.69;;;8.94;100.00
59757;BME280;45631;51.962;5.974;2023-02-18T00:36:25;102013.69;;;9.04;100.00
59757;BME280;45631;51.962;5.974;2023-02-18T00:38:56;102009.72;;;8.93;100.00
59757;BME280;45631;51.962;5.974;2023-02-18T00:41:26;102011.63;;;8.90;100.00
59757;BME280;45631;51.962;5.974;2023-02-18T00:43:55;102001.50;;;9.03;100.00
59757;BME280;45631;51.962;5.974;2023-02-18T00:46:25;101994.84;;;8.94;100.00
59757;BME280;45631;51.962;5.974;2023-02-18T00:48:54;101988.06;;;8.88;100.00
59757;BME280;45631;51.962;5.974;2023-02-18T00:51:23;101985.31;;;8.91;100.00
59757;BME280;45631;51.962;5.974;2023-02-18T00:53:52;101980.19;;;8.88;100.00
59757;BME280;45631;51.962;5.974;2023-02-18T00:56:20;101972.53;;;8.84;100.00
59757;BME280;45631;51.962;5.974;2023-02-18T00:58:48;101968.13;;;8.84;100.00
59757;BME280;45631;51.962;5.974;2023-02-18T01:01:18;101967.22;;;8.85;100.00
59757;BME280;45631;51.962;5.974;2023-02-18T01:03:48;101968.03;;;8.86;100.00
59757;BME280;45631;51.962;5.974;2023-02-18T01:06:16;101977.56;;;8.88;100.00
59757;BME280;45631;51.962;5.974;2023-02-18T01:08:44;101978.53;;;8.86;100.00
59757;BME280;45631;51.962;5.974;2023-02-18T01:11:13;101979.34;;;8.88;100.00
59757;BME280;45631;51.962;5.974;2023-02-18T01:13:41;101975.75;;;8.90;100.00
59757;BME280;45631;51.962;5.974;2023-02-18T01:16:09;101969.47;;;8.94;100.00
59757;BME280;45631;51.962;5.974;2023-02-18T01:18:40;101968.78;;;8.89;100.00
59757;BME280;45631;51.962;5.974;2023-02-18T01:21:10;101972.19;;;8.91;100.00
59757;BME280;45631;51.962;5.974;2023-02-18T01:23:40;101980.13;;;8.90;100.00
59757;BME280;45631;51.962;5.974;2023-02-18T01:26:09;101979.22;;;8.91;100.00
59757;BME280;45631;51.962;5.974;2023-02-18T01:28:38;101970.13;;;9.00;100.00
59757;BME280;45631;51.962;5.974;2023-02-18T01:31:09;101967.63;;;8.96;100.00
59757;BME280;45631;51.962;5.974;2023-02-18T01:33:38;101963.28;;;8.95;100.00
59757;BME280;45631;51.962;5.974;2023-02-18T01:36:07;101964.22;;;8.94;100.00
59757;BME280;45631;51.962;5.974;2023-02-18T01:38:37;101966.84;;;8.94;100.00
59757;BME280;45631;51.962;5.974;2023-02-18T01:41:06;101952.91;;;8.92;100.00
59757;BME280;45631;51.962;5.974;2023-02-18T01:43:35;101951.19;;;8.91;100.00
59757;BME280;45631;51.962;5.974;2023-02-18T01:46:12;101957.19;;;8.95;100.00
59757;BME280;45631;51.962;5.974;2023-02-18T01:48:43;101949.13;;;9.00;100.00
59757;BME280;45631;51.962;5.974;2023-02-18T01:51:17;101944.75;;;9.00;100.00
59757;BME280;45631;51.962;5.974;2023-02-18T01:53:51;101944.84;;;8.97;100.00
59757;BME280;45631;51.962;5.974;2023-02-18T01:56:24;101940.47;;;8.98;100.00
59757;BME280;45631;51.962;5.974;2023-02-18T01:58:54;101934.31;;;8.99;100.00
59757;BME280;45631;51.962;5.974;2023-02-18T02:01:24;101930.81;;;8.98;100.00
59757;BME280;45631;51.962;5.974;2023-02-18T02:03:54;101933.56;;;8.95;100.00
59757;BME280;45631;51.962;5.974;2023-02-18T02:06:23;101938.75;;;8.96;100.00
59757;BME280;45631;51.962;5.974;2023-02-18T02:08:56;101925.69;;;8.95;100.00
59757;BME280;45631;51.962;5.974;2023-02-18T02:11:46;101918.59;;;8.97;100.00
59757;BME280;45631;51.962;5.974;2023-02-18T02:14:36;101912.53;;;8.96;100.00
59757;BME280;45631;51.962;5.974;2023-02-18T02:17:17;101911.78;;;8.93;100.00
59757;BME280;45631;51.962;5.974;2023-02-18T02:26:45;101888.91;;;8.96;100.00
59757;BME280;45631;51.962;5.974;2023-02-18T02:32:41;101874.88;;;8.98;100.00
59757;BME280;45631;51.962;5.974;2023-02-18T02:35:19;101853.09;;;8.95;100.00
59757;BME280;45631;51.962;5.974;2023-02-18T02:37:54;101860.03;;;8.96;100.00
59757;BME280;45631;51.962;5.974;2023-02-18T02:40:32;101856.50;;;8.98;100.00
59757;BME280;45631;51.962;5.974;2023-02-18T02:43:07;101848.56;;;8.99;100.00
59757;BME280;45631;51.962;5.974;2023-02-18T02:45:49;101844.97;;;9.02;100.00
59757;BME280;45631;51.962;5.974;2023-02-18T02:48:24;101841.28;;;9.06;100.00
59757;BME280;45631;51.962;5.974;2023-02-18T02:51:04;101839.56;;;9.05;100.00
59757;BME280;45631;51.962;5.974;2023-02-18T02:53:35;101832.50;;;9.07;100.00
59757;BME280;45631;51.962;5.974;2023-02-18T02:56:03;101810.72;;;9.05;100.00
59757;BME280;45631;51.962;5.974;2023-02-18T02:58:32;101805.47;;;9.05;100.00
59757;BME280;45631;51.962;5.974;2023-02-18T03:01:12;101802.59;;;9.11;100.00
59757;BME280;45631;51.962;5.974;2023-02-18T03:03:54;101805.16;;;9.12;100.00
59757;BME280;45631;51.962;5.974;2023-02-18T03:06:38;101791.16;;;9.12;100.00
59757;BME280;45631;51.962;5.974;2023-02-18T03:09:16;101792.53;;;9.21;100.00
59757;BME280;45631;51.962;5.974;2023-02-18T03:11:53;101780.53;;;9.15;100.00
59757;BME280;45631;51.962;5.974;2023-02-18T03:14:28;101775.38;;;9.13;100.00
59757;BME280;45631;51.962;5.974;2023-02-18T03:17:02;101771.72;;;9.16;100.00
59757;BME280;45631;51.962;5.974;2023-02-18T03:19:34;101765.41;;;9.20;100.00
59757;BME280;45631;51.962;5.974;2023-02-18T03:22:10;101764.56;;;9.20;100.00
59757;BME280;45631;51.962;5.974;2023-02-18T03:24:41;101756.56;;;9.23;100.00
59757;BME280;45631;51.962;5.974;2023-02-18T03:27:13;101753.09;;;9.22;100.00
59757;BME280;45631;51.962;5.974;2023-02-18T03:29:44;101752.03;;;9.26;100.00
59757;BME280;45631;51.962;5.974;2023-02-18T03:32:15;101748.63;;;9.24;100.00
59757;BME280;45631;51.962;5.974;2023-02-18T03:34:49;101741.69;;;9.23;100.00
59757;BME280;45631;51.962;5.974;2023-02-18T03:37:20;101740.81;;;9.23;100.00
59757;BME280;45631;51.962;5.974;2023-02-18T03:39:53;101744.16;;;9.26;100.00
59757;BME280;45631;51.962;5.974;2023-02-18T03:42:24;101723.72;;;9.33;100.00
59757;BME280;45631;51.962;5.974;2023-02-18T03:44:54;101733.44;;;9.31;100.00
59757;BME280;45631;51.962;5.974;2023-02-18T03:47:22;101721.94;;;9.34;100.00
59757;BME280;45631;51.962;5.974;2023-02-18T03:49:51;101721.69;;;9.40;100.00
59757;BME280;45631;51.962;5.974;2023-02-18T03:52:20;101720.69;;;9.42;100.00
59757;BME280;45631;51.962;5.974;2023-02-18T03:54:48;101713.06;;;9.36;100.00
59757;BME280;45631;51.962;5.974;2023-02-18T03:57:17;101700.88;;;9.35;100.00
59757;BME280;45631;51.962;5.974;2023-02-18T03:59:45;101697.56;;;9.32;100.00
59757;BME280;45631;51.962;5.974;2023-02-18T04:02:13;101698.41;;;9.32;100.00
59757;BME280;45631;51.962;5.974;2023-02-18T04:04:41;101692.16;;;9.35;100.00
59757;BME280;45631;51.962;5.974;2023-02-18T04:07:09;101690.16;;;9.40;100.00
59757;BME280;45631;51.962;5.974;2023-02-18T04:09:39;101680.66;;;9.37;100.00
59757;BME280;45631;51.962;5.974;2023-02-18T04:12:07;101680.66;;;9.37;100.00
59757;BME280;45631;51.962;5.974;2023-02-18T04:14:36;101678.09;;;9.36;100.00
59757;BME280;45631;51.962;5.974;2023-02-18T04:17:04;101666.63;;;9.38;100.00
59757;BME280;45631;51.962;5.974;2023-02-18T04:19:32;101665.66;;;9.39;100.00
59757;BME280;45631;51.962;5.974;2023-02-18T04:22:02;101664.91;;;9.37;100.00
59757;BME280;45631;51.962;5.974;2023-02-18T04:24:30;101671.88;;;9.38;100.00
59757;BME280;45631;51.962;5.974;2023-02-18T04:27:00;101668.38;;;9.38;100.00
59757;BME280;45631;51.962;5.974;2023-02-18T04:29:28;101672.84;;;9.36;100.00
59757;BME280;45631;51.962;5.974;2023-02-18T04:31:59;101667.59;;;9.36;100.00
59757;BME280;45631;51.962;5.974;2023-02-18T04:34:28;101666.75;;;9.35;100.00
59757;BME280;45631;51.962;5.974;2023-02-18T04:36:56;101671.06;;;9.36;100.00
59757;BME280;45631;51.962;5.974;2023-02-18T04:39:24;101662.34;;;9.36;100.00
59757;BME280;45631;51.962;5.974;2023-02-18T04:41:52;101658.03;;;9.35;100.00
59757;BME280;45631;51.962;5.974;2023-02-18T04:44:22;101659.72;;;9.36;100.00
59757;BME280;45631;51.962;5.974;2023-02-18T04:46:50;101653.69;;;9.34;100.00
59757;BME280;45631;51.962;5.974;2023-02-18T04:49:18;101649.16;;;9.37;100.00
59757;BME280;45631;51.962;5.974;2023-02-18T04:51:46;101632.69;;;9.34;100.00
59757;BME280;45631;51.962;5.974;2023-02-18T04:54:14;101643.25;;;9.32;100.00
59757;BME280;45631;51.962;5.974;2023-02-18T04:56:42;101640.56;;;9.34;100.00
59757;BME280;45631;51.962;5.974;2023-02-18T04:59:10;101637.03;;;9.35;100.00
59757;BME280;45631;51.962;5.974;2023-02-18T05:01:39;101627.50;;;9.32;100.00
59757;BME280;45631;51.962;5.974;2023-02-18T05:04:08;101624.72;;;9.35;100.00
59757;BME280;45631;51.962;5.974;2023-02-18T05:06:36;101616.94;;;9.34;100.00
59757;BME280;45631;51.962;5.974;2023-02-18T05:09:05;101610.84;;;9.33;100.00
59757;BME280;45631;51.962;5.974;2023-02-18T05:11:34;101608.94;;;9.37;100.00
59757;BME280;45631;51.962;5.974;2023-02-18T05:14:02;101609.84;;;9.36;100.00
59757;BME280;45631;51.962;5.974;2023-02-18T05:16:30;101598.47;;;9.35;100.00
59757;BME280;45631;51.962;5.974;2023-02-18T05:19:00;101592.94;;;9.41;100.00
59757;BME280;45631;51.962;5.974;2023-02-18T05:21:28;101600.97;;;9.38;100.00
59757;BME280;45631;51.962;5.974;2023-02-18T05:23:56;101596.56;;;9.39;100.00
59757;BME280;45631;51.962;5.974;2023-02-18T05:26:24;101597.50;;;9.38;100.00
59757;BME280;45631;51.962;5.974;2023-02-18T05:28:52;101595.84;;;9.35;100.00
59757;BME280;45631;51.962;5.974;2023-02-18T05:31:21;101600.28;;;9.35;100.00
59757;BME280;45631;51.962;5.974;2023-02-18T05:33:49;101594.75;;;9.41;100.00
59757;BME280;45631;51.962;5.974;2023-02-18T05:36:18;101595.81;;;9.37;100.00
59757;BME280;45631;51.962;5.974;2023-02-18T05:38:46;101583.44;;;9.39;100.00
59757;BME280;45631;51.962;5.974;2023-02-18T05:41:14;101587.69;;;9.41;100.00
59757;BME280;45631;51.962;5.974;2023-02-18T05:43:42;101584.28;;;9.39;100.00
59757;BME280;45631;51.962;5.974;2023-02-18T05:46:28;101581.66;;;9.39;100.00
59757;BME280;45631;51.962;5.974;2023-02-18T05:48:56;101590.56;;;9.37;100.00
59757;BME280;45631;51.962;5.974;2023-02-18T05:51:26;101579.13;;;9.38;100.00
59757;BME280;45631;51.962;5.974;2023-02-18T05:53:54;101581.91;;;9.35;100.00
59757;BME280;45631;51.962;5.974;2023-02-18T05:56:22;101571.56;;;9.32;100.00
59757;BME280;45631;51.962;5.974;2023-02-18T05:58:50;101580.25;;;9.32;100.00
59757;BME280;45631;51.962;5.974;2023-02-18T06:01:18;101569.69;;;9.34;100.00
59757;BME280;45631;51.962;5.974;2023-02-18T06:03:46;101569.69;;;9.34;100.00
59757;BME280;45631;51.962;5.974;2023-02-18T06:06:14;101572.22;;;9.35;100.00
59757;BME280;45631;51.962;5.974;2023-02-18T06:08:47;101564.59;;;9.30;100.00
59757;BME280;45631;51.962;5.974;2023-02-18T06:11:15;101568.13;;;9.29;100.00
59757;BME280;45631;51.962;5.974;2023-02-18T06:13:43;101572.69;;;9.26;100.00
59757;BME280;45631;51.962;5.974;2023-02-18T06:16:12;101571.91;;;9.24;100.00
59757;BME280;45631;51.962;5.974;2023-02-18T06:18:40;101567.28;;;9.29;100.00
59757;BME280;45631;51.962;5.974;2023-02-18T06:21:10;101566.47;;;9.28;100.00
59757;BME280;45631;51.962;5.974;2023-02-18T06:23:38;101567.28;;;9.29;100.00
59757;BME280;45631;51.962;5.974;2023-02-18T06:26:08;101562.03;;;9.29;100.00
59757;BME280;45631;51.962;5.974;2023-02-18T06:28:36;101573.38;;;9.29;100.00
59757;BME280;45631;51.962;5.974;2023-02-18T06:31:05;101572.53;;;9.29;100.00
59757;BME280;45631;51.962;5.974;2023-02-18T06:33:33;101579.59;;;9.28;100.00
59757;BME280;45631;51.962;5.974;2023-02-18T06:36:04;101573.25;;;9.33;100.00
59757;BME280;45631;51.962;5.974;2023-02-18T06:38:34;101584.88;;;9.27;100.00
59757;BME280;45631;51.962;5.974;2023-02-18T06:41:03;101575.41;;;9.24;100.00
59757;BME280;45631;51.962;5.974;2023-02-18T06:43:33;101578.06;;;9.23;100.00
59757;BME280;45631;51.962;5.974;2023-02-18T06:46:01;101580.50;;;9.27;100.00
59757;BME280;45631;51.962;5.974;2023-02-18T06:48:30;101575.41;;;9.24;100.00
59757;BME280;45631;51.962;5.974;2023-02-18T06:51:00;101582.47;;;9.22;100.00
59757;BME280;45631;51.962;5.974;2023-02-18T06:53:29;101581.56;;;9.23;100.00
59757;BME280;45631;51.962;5.974;2023-02-18T06:56:00;101574.59;;;9.22;100.00
59757;BME280;45631;51.962;5.974;2023-02-18T06:58:28;101574.53;;;9.24;100.00
59757;BME280;45631;51.962;5.974;2023-02-18T07:00:58;101588.72;;;9.20;100.00
59757;BME280;45631;51.962;5.974;2023-02-18T07:03:26;101586.19;;;9.18;100.00
59757;BME280;45631;51.962;5.974;2023-02-18T07:05:54;101591.44;;;9.18;100.00
59757;BME280;45631;51.962;5.974;2023-02-18T07:08:22;101582.84;;;9.14;100.00
59757;BME280;45631;51.962;5.974;2023-02-18T07:10:51;101587.97;;;9.18;100.00
59757;BME280;45631;51.962;5.974;2023-02-18T07:13:19;101585.38;;;9.16;100.00
59757;BME280;45631;51.962;5.974;2023-02-18T07:15:50;101581.84;;;9.17;100.00
59757;BME280;45631;51.962;5.974;2023-02-18T07:18:19;101581.91;;;9.16;100.00
59757;BME280;45631;51.962;5.974;2023-02-18T07:20:50;101572.34;;;9.14;100.00
59757;BME280;45631;51.962;5.974;2023-02-18T07:23:18;101572.41;;;9.13;100.00
59757;BME280;45631;51.962;5.974;2023-02-18T07:25:46;101579.44;;;9.12;100.00
59757;BME280;45631;51.962;5.974;2023-02-18T07:28:15;101585.63;;;9.11;100.00
59757;BME280;45631;51.962;5.974;2023-02-18T07:30:43;101586.44;;;9.12;100.00
59757;BME280;45631;51.962;5.974;2023-02-18T07:33:11;101591.03;;;9.08;100.00
59757;BME280;45631;51.962;5.974;2023-02-18T07:35:41;101578.81;;;9.07;100.00
59757;BME280;45631;51.962;5.974;2023-02-18T07:38:09;101580.38;;;9.11;100.00
59757;BME280;45631;51.962;5.974;2023-02-18T07:40:37;101586.59;;;9.09;100.00
59757;BME280;45631;51.962;5.974;2023-02-18T07:43:06;101590.16;;;9.08;100.00
59757;BME280;45631;51.962;5.974;2023-02-18T07:45:36;101586.59;;;9.09;100.00
59757;BME280;45631;51.962;5.974;2023-02-18T07:48:05;101584.78;;;9.11;100.00
59757;BME280;45631;51.962;5.974;2023-02-18T07:50:38;101585.84;;;9.07;100.00
59757;BME280;45631;51.962;5.974;2023-02-18T07:53:10;101590.16;;;9.08;100.00
59757;BME280;45631;51.962;5.974;2023-02-18T07:55:38;101587.53;;;9.08;100.00
59757;BME280;45631;51.962;5.974;2023-02-18T07:58:20;101588.31;;;9.10;100.00
59757;BME280;45631;51.962;5.974;2023-02-18T08:00:49;101584.84;;;9.09;100.00
59757;BME280;45631;51.962;5.974;2023-02-18T08:03:20;101564.84;;;9.07;100.00
59757;BME280;45631;51.962;5.974;2023-02-18T08:05:50;101583.97;;;9.09;100.00
59757;BME280;45631;51.962;5.974;2023-02-18T08:08:22;101568.31;;;9.07;100.00
59757;BME280;45631;51.962;5.974;2023-02-18T08:10:57;101564.84;;;9.07;100.00
59757;BME280;45631;51.962;5.974;2023-02-18T08:13:32;101571.16;;;9.03;100.00
59757;BME280;45631;51.962;5.974;2023-02-18T08:16:00;101588.25;;;9.11;100.00
59757;BME280;45631;51.962;5.974;2023-02-18T08:18:29;101583.00;;;9.11;100.00
59757;BME280;45631;51.962;5.974;2023-02-18T08:20:57;101583.16;;;9.08;100.00
59757;BME280;45631;51.962;5.974;2023-02-18T08:23:26;101582.16;;;9.11;100.00
59757;BME280;45631;51.962;5.974;2023-02-18T08:25:54;101589.06;;;9.12;100.00
59757;BME280;45631;51.962;5.974;2023-02-18T08:28:23;101583.00;;;9.11;100.00
59757;BME280;45631;51.962;5.974;2023-02-18T08:30:52;101597.66;;;9.16;100.00
59757;BME280;45631;51.962;5.974;2023-02-18T08:33:22;101588.97;;;9.15;100.00
59757;BME280;45631;51.962;5.974;2023-02-18T08:35:52;101590.50;;;9.19;100.00
59757;BME280;45631;51.962;5.974;2023-02-18T08:38:21;101585.25;;;9.19;100.00
59757;BME280;45631;51.962;5.974;2023-02-18T08:41:00;101598.50;;;9.16;100.00
59757;BME280;45631;51.962;5.974;2023-02-18T08:43:29;101594.22;;;9.15;100.00
59757;BME280;45631;51.962;5.974;2023-02-18T08:46:00;101592.66;;;9.11;100.00
59757;BME280;45631;51.962;5.974;2023-02-18T08:48:28;101588.16;;;9.13;100.00
59757;BME280;45631;51.962;5.974;2023-02-18T08:50:57;101588.59;;;9.04;100.00
59757;BME280;45631;51.962;5.974;2023-02-18T08:53:25;101592.91;;;9.05;100.00
59757;BME280;45631;51.962;5.974;2023-02-18T08:55:55;101593.84;;;9.04;100.00
59757;BME280;45631;51.962;5.974;2023-02-18T08:58:23;101605.13;;;9.06;100.00
59757;BME280;45631;51.962;5.974;2023-02-18T09:00:51;101614.56;;;9.10;100.00
59757;BME280;45631;51.962;5.974;2023-02-18T09:03:19;101602.69;;;9.01;100.00
59757;BME280;45631;51.962;5.974;2023-02-18T09:05:47;101615.88;;;9.00;100.00
59757;BME280;45631;51.962;5.974;2023-02-18T09:08:15;101601.72;;;9.04;100.00
59757;BME280;45631;51.962;5.974;2023-02-18T09:10:43;101609.72;;;9.01;100.00
59757;BME280;45631;51.962;5.974;2023-02-18T09:13:13;101613.75;;;8.89;100.00
59757;BME280;45631;51.962;5.974;2023-02-18T09:15:41;101606.75;;;8.89;100.00
59757;BME280;45631;51.962;5.974;2023-02-18T09:18:09;101603.63;;;8.81;100.00
59757;BME280;45631;51.962;5.974;2023-02-18T09:20:38;101596.47;;;8.85;100.00
59757;BME280;45631;51.962;5.974;2023-02-18T09:23:07;101600.72;;;8.87;100.00
59757;BME280;45631;51.962;5.974;2023-02-18T09:25:38;101600.88;;;8.84;100.00
59757;BME280;45631;51.962;5.974;2023-02-18T09:28:06;101608.16;;;8.77;100.00
59757;BME280;45631;51.962;5.974;2023-02-18T09:30:36;101608.09;;;8.79;100.00
59757;BME280;45631;51.962;5.974;2023-02-18T09:33:06;101610.22;;;8.71;100.00
59757;BME280;45631;51.962;5.974;2023-02-18T09:35:38;101610.94;;;8.74;100.00
59757;BME280;45631;51.962;5.974;2023-02-18T09:38:07;101605.03;;;8.69;100.00
59757;BME280;45631;51.962;5.974;2023-02-18T09:40:37;101598.81;;;8.72;100.00
59757;BME280;45631;51.962;5.974;2023-02-18T09:43:17;101605.94;;;8.68;100.00
59757;BME280;45631;51.962;5.974;2023-02-18T09:45:47;101607.72;;;8.68;100.00
59757;BME280;45631;51.962;5.974;2023-02-18T09:48:16;101599.06;;;8.66;100.00
59757;BME280;45631;51.962;5.974;2023-02-18T09:50:47;101596.44;;;8.66;100.00
59757;BME280;45631;51.962;5.974;2023-02-18T09:53:17;101600.78;;;8.67;100.00
59757;BME280;45631;51.962;5.974;2023-02-18T09:55:47;101606.09;;;8.65;100.00
59757;BME280;45631;51.962;5.974;2023-02-18T09:58:18;101607.81;;;8.66;100.00
59757;BME280;45631;51.962;5.974;2023-02-18T10:00:51;101620.03;;;8.66;100.00
59757;BME280;45631;51.962;5.974;2023-02-18T10:03:23;101612.13;;;8.67;100.00
59757;BME280;45631;51.962;5.974;2023-02-18T10:05:56;101627.81;;;8.69;100.00
59757;BME280;45631;51.962;5.974;2023-02-18T10:08:25;101617.00;;;8.75;100.00
59757;BME280;45631;51.962;5.974;2023-02-18T10:10:57;101631.84;;;8.76;100.00
59757;BME280;45631;51.962;5.974;2023-02-18T10:13:28;101627.38;;;8.78;100.00
59757;BME280;45631;51.962;5.974;2023-02-18T10:15:58;101626.25;;;8.84;100.00
59757;BME280;45631;51.962;5.974;2023-02-18T10:18:28;101625.53;;;8.80;100.00
59757;BME280;45631;51.962;5.974;2023-02-18T10:21:03;101629.97;;;8.78;100.00
59757;BME280;45631;51.962;5.974;2023-02-18T10:23:37;101632.56;;;8.79;100.00
59757;BME280;45631;51.962;5.974;2023-02-18T10:26:11;101645.47;;;8.84;100.00
59757;BME280;45631;51.962;5.974;2023-02-18T10:28:41;101656.22;;;8.78;100.00
59757;BME280;45631;51.962;5.974;2023-02-18T10:31:15;101646.75;;;8.75;100.00
59757;BME280;45631;51.962;5.974;2023-02-18T10:33:49;101649.47;;;8.72;100.00
59757;BME280;45631;51.962;5.974;2023-02-18T10:36:24;101646.84;;;8.72;100.00
59757;BME280;45631;51.962;5.974;2023-02-18T10:39:24;101654.66;;;8.74;100.00
59757;BME280;45631;51.962;5.974;2023-02-18T10:42:08;101655.38;;;8.77;100.00
59757;BME280;45631;51.962;5.974;2023-02-18T10:44:46;101648.34;;;8.78;100.00
59757;BME280;45631;51.962;5.974;2023-02-18T10:47:31;101659.63;;;8.80;100.00
59757;BME280;45631;51.962;5.974;2023-02-18T10:50:09;101652.69;;;8.79;100.00
59757;BME280;45631;51.962;5.974;2023-02-18T10:52:42;101664.22;;;8.75;100.00
59757;BME280;45631;51.962;5.974;2023-02-18T10:55:12;101650.13;;;8.77;100.00
59757;BME280;45631;51.962;5.974;2023-02-18T10:57:46;101658.06;;;8.76;100.00
59757;BME280;45631;51.962;5.974;2023-02-18T11:00:17;101663.97;;;8.81;100.00
59757;BME280;45631;51.962;5.974;2023-02-18T11:03:12;101657.81;;;8.82;100.00
59757;BME280;45631;51.962;5.974;2023-02-18T11:05:41;101657.09;;;8.78;100.00
59757;BME280;45631;51.962;5.974;2023-02-18T11:08:15;101645.78;;;8.76;100.00
59757;BME280;45631;51.962;5.974;2023-02-18T11:10:45;101662.47;;;8.75;100.00
59757;BME280;45631;51.962;5.974;2023-02-18T11:13:15;101644.69;;;8.82;100.00
59757;BME280;45631;51.962;5.974;2023-02-18T11:15:56;101658.66;;;8.83;100.00
59757;BME280;45631;51.962;5.974;2023-02-18T11:18:31;101661.19;;;8.84;100.00
59757;BME280;45631;51.962;5.974;2023-02-18T11:21:02;101653.97;;;8.89;100.00
59757;BME280;45631;51.962;5.974;2023-02-18T11:23:31;101651.22;;;8.92;100.00
59757;BME280;45631;51.962;5.974;2023-02-18T11:26:14;101645.06;;;8.93;100.00
59757;BME280;45631;51.962;5.974;2023-02-18T11:28:45;101645.75;;;8.97;100.00
59757;BME280;45631;51.962;5.974;2023-02-18T11:31:20;101648.91;;;9.05;100.00
59757;BME280;45631;51.962;5.974;2023-02-18T11:33:53;101652.56;;;9.01;100.00
59757;BME280;45631;51.962;5.974;2023-02-18T11:36:24;101650.72;;;9.03;100.00
59757;BME280;45631;51.962;5.974;2023-02-18T11:38:56;101654.16;;;9.05;100.00
59757;BME280;45631;51.962;5.974;2023-02-18T11:41:32;101642.59;;;9.09;100.00
59757;BME280;45631;51.962;5.974;2023-02-18T11:44:02;101647.75;;;9.11;100.00
59757;BME280;45631;51.962;5.974;2023-02-18T11:46:32;101642.22;;;9.17;100.00
59757;BME280;45631;51.962;5.974;2023-02-18T11:49:20;101639.59;;;9.17;100.00
59757;BME280;45631;51.962;5.974;2023-02-18T11:51:49;101640.38;;;9.19;100.00
59757;BME280;45631;51.962;5.974;2023-02-18T11:54:23;101648.94;;;9.23;100.00
59757;BME280;45631;51.962;5.974;2023-02-18T11:56:57;101645.47;;;9.22;100.00
59757;BME280;45631;51.962;5.974;2023-02-18T11:59:25;101641.72;;;9.28;100.00
59757;BME280;45631;51.962;5.974;2023-02-18T12:01:59;101652.78;;;9.35;100.00
59757;BME280;45631;51.962;5.974;2023-02-18T12:04:36;101649.31;;;9.34;100.00
59757;BME280;45631;51.962;5.974;2023-02-18T12:07:16;101634.41;;;9.35;100.00
59757;BME280;45631;51.962;5.974;2023-02-18T12:09:48;101635.22;;;9.35;100.00
59757;BME280;45631;51.962;5.974;2023-02-18T12:12:24;101639.50;;;9.38;100.00
59757;BME280;45631;51.962;5.974;2023-02-18T12:14:56;101640.44;;;9.37;100.00
59757;BME280;45631;51.962;5.974;2023-02-18T12:17:45;101636.50;;;9.45;100.00
59757;BME280;45631;51.962;5.974;2023-02-18T12:20:40;101643.66;;;9.42;100.00
59757;BME280;45631;51.962;5.974;2023-02-18T12:23:15;101648.94;;;9.42;100.00
59757;BME280;45631;51.962;5.974;2023-02-18T12:25:55;101639.28;;;9.42;100.00
59757;BME280;45631;51.962;5.974;2023-02-18T12:28:41;101643.06;;;9.37;100.00
59757;BME280;45631;51.962;5.974;2023-02-18T12:31:26;101637.81;;;9.37;100.00
59757;BME280;45631;51.962;5.974;2023-02-18T12:34:16;101650.88;;;9.38;100.00
59757;BME280;45631;51.962;5.974;2023-02-18T12:36:58;101650.16;;;9.35;100.00
59757;BME280;45631;51.962;5.974;2023-02-18T12:39:38;101643.25;;;9.32;100.00
59757;BME280;45631;51.962;5.974;2023-02-18T12:42:21;101636.38;;;9.29;100.00
59757;BME280;45631;51.962;5.974;2023-02-18T12:45:02;101648.31;;;9.37;100.00
59757;BME280;45631;51.962;5.974;2023-02-18T12:47:45;101633.41;;;9.37;100.00
59757;BME280;45631;51.962;5.974;2023-02-18T12:53:33;101642.59;;;9.46;100.00
59757;BME280;45631;51.962;5.974;2023-02-18T12:56:13;101637.34;;;9.46;100.00
59757;BME280;45631;51.962;5.974;2023-02-18T12:58:53;101641.75;;;9.45;100.00
59757;BME280;45631;51.962;5.974;2023-02-18T13:01:38;101638.16;;;9.48;100.00
59757;BME280;45631;51.962;5.974;2023-02-18T13:04:23;101643.03;;;9.56;100.00
59757;BME280;45631;51.962;5.974;2023-02-18T13:10:04;101640.41;;;9.56;100.00
59757;BME280;45631;51.962;5.974;2023-02-18T13:12:43;101649.28;;;9.53;100.00
59757;BME280;45631;51.962;5.974;2023-02-18T13:15:20;101647.97;;;9.62;100.00
59757;BME280;45631;51.962;5.974;2023-02-18T13:17:51;101656.09;;;9.57;100.00
59757;BME280;45631;51.962;5.974;2023-02-18T13:20:28;101650.84;;;9.57;100.00
59757;BME280;45631;51.962;5.974;2023-02-18T13:23:01;101650.69;;;9.60;100.00
59757;BME280;45631;51.962;5.974;2023-02-18T13:25:35;101659.31;;;9.62;100.00
59757;BME280;45631;51.962;5.974;2023-02-18T13:28:09;101655.63;;;9.67;100.00
59757;BME280;45631;51.962;5.974;2023-02-18T13:30:48;101649.09;;;9.75;100.00